sensor_id;sensor_type;location;lat;lon;timestamp;pressure;altitude;pressure_sealevel;temperature;humidity
29383;BME280;16365;51.598;7.668;2023-02-14T00:00:27;102857.13;;;9.44;48.52
29383;BME280;16365;51.598;7.668;2023-02-14T00:02:53;102862.09;;;9.42;48.93
29383;BME280;16365;51.598;7.668;2023-02-14T00:05:21;102860.44;;;9.41;48.80
29383;BME280;16365;51.598;7.668;2023-02-14T00:07:48;102859.88;;;9.39;48.79
29383;BME280;16365;51.598;7.668;2023-02-14T00:10:15;102862.91;;;9.37;48.81
29383;BME280;16365;51.598;7.668;2023-02-14T00:12:41;102857.91;;;9.34;49.32
29383;BME280;16365;51.598;7.668;2023-02-14T00:15:08;102860.38;;;9.31;48.97
29383;BME280;16365;51.598;7.668;2023-02-14T00:17:48;102857.03;;;9.29;49.24
29383;BME280;16365;51.598;7.668;2023-02-14T00:20:15;102854.53;;;9.27;49.10
29383;BME280;16365;51.598;7.668;2023-02-14T00:22:42;102851.47;;;9.23;49.25
29383;BME280;16365;51.598;7.668;2023-02-14T00:25:09;102863.63;;;9.22;48.82
29383;BME280;16365;51.598;7.668;2023-02-14T00:27:37;102853.09;;;9.19;49.48
29383;BME280;16365;51.598;7.668;2023-02-14T00:30:05;102855.88;;;9.19;48.68
29383;BME280;16365;51.598;7.668;2023-02-14T00:32:32;102870.78;;;9.18;49.18
29383;BME280;16365;51.598;7.668;2023-02-14T00:34:59;102864.97;;;9.15;48.82
29383;BME280;16365;51.598;7.668;2023-02-14T00:37:25;102862.72;;;9.12;48.85
29383;BME280;16365;51.598;7.668;2023-02-14T00:39:52;102864.94;;;9.10;49.12
29383;BME280;16365;51.598;7.668;2023-02-14T00:42:18;102861.84;;;9.06;48.94
29383;BME280;16365;51.598;7.668;2023-02-14T00:44:45;102865.16;;;9.03;49.47
29383;BME280;16365;51.598;7.668;2023-02-14T00:47:11;102862.94;;;9.00;48.81
29383;BME280;16365;51.598;7.668;2023-02-14T00:49:37;102864.28;;;8.97;49.43
29383;BME280;16365;51.598;7.668;2023-02-14T00:52:04;102857.34;;;8.95;49.42
29383;BME280;16365;51.598;7.668;2023-02-14T00:54:30;102863.97;;;8.94;49.45
29383;BME280;16365;51.598;7.668;2023-02-14T00:56:57;102872.25;;;8.94;49.12
29383;BME280;16365;51.598;7.668;2023-02-14T00:59:23;102863.13;;;8.93;49.12
29383;BME280;16365;51.598;7.668;2023-02-14T01:01:50;102867.28;;;8.91;48.80
29383;BME280;16365;51.598;7.668;2023-02-14T01:04:16;102865.59;;;8.90;49.67
29383;BME280;16365;51.598;7.668;2023-02-14T01:06:43;102870.56;;;8.88;49.61
29383;BME280;16365;51.598;7.668;2023-02-14T01:09:09;102871.66;;;8.87;49.14
29383;BME280;16365;51.598;7.668;2023-02-14T01:11:36;102867.22;;;8.86;49.30
29383;BME280;16365;51.598;7.668;2023-02-14T01:14:02;102871.34;;;8.83;49.56
29383;BME280;16365;51.598;7.668;2023-02-14T01:16:29;102872.44;;;8.82;49.29
29383;BME280;16365;51.598;7.668;2023-02-14T01:18:58;102863.31;;;8.82;49.22
29383;BME280;16365;51.598;7.668;2023-02-14T01:21:31;102869.13;;;8.80;49.49
29383;BME280;16365;51.598;7.668;2023-02-14T01:24:01;102867.44;;;8.79;49.59
29383;BME280;16365;51.598;7.668;2023-02-14T01:26:28;102867.69;;;8.78;48.86
29383;BME280;16365;51.598;7.668;2023-02-14T01:28:55;102866.03;;;8.77;49.29
29383;BME280;16365;51.598;7.668;2023-02-14T01:31:27;102865.44;;;8.74;49.69
29383;BME280;16365;51.598;7.668;2023-02-14T01:33:54;102872.09;;;8.73;48.90
29383;BME280;16365;51.598;7.668;2023-02-14T01:38:51;102865.41;;;8.69;48.90
29383;BME280;16365;51.598;7.668;2023-02-14T01:41:19;102874.25;;;8.66;49.53
29383;BME280;16365;51.598;7.668;2023-02-14T01:43:59;102870.34;;;8.62;50.00
29383;BME280;16365;51.598;7.668;2023-02-14T01:46:28;102865.91;;;8.61;48.88
29383;BME280;16365;51.598;7.668;2023-02-14T01:49:02;102861.44;;;8.60;49.26
29383;BME280;16365;51.598;7.668;2023-02-14T01:51:31;102864.22;;;8.60;49.42
29383;BME280;16365;51.598;7.668;2023-02-14T01:54:00;102859.22;;;8.57;49.73
29383;BME280;16365;51.598;7.668;2023-02-14T01:56:33;102858.63;;;8.55;49.38
29383;BME280;16365;51.598;7.668;2023-02-14T01:59:05;102858.91;;;8.54;49.48
29383;BME280;16365;51.598;7.668;2023-02-14T02:01:32;102860.00;;;8.53;48.98
29383;BME280;16365;51.598;7.668;2023-02-14T02:04:05;102863.56;;;8.48;48.84
29383;BME280;16365;51.598;7.668;2023-02-14T02:06:40;102849.69;;;8.43;49.53
29383;BME280;16365;51.598;7.668;2023-02-14T02:09:17;102847.19;;;8.41;49.88
29383;BME280;16365;51.598;7.668;2023-02-14T02:11:46;102844.44;;;8.41;49.68
29383;BME280;16365;51.598;7.668;2023-02-14T02:14:15;102848.53;;;8.39;49.67
29383;BME280;16365;51.598;7.668;2023-02-14T02:31:40;102843.47;;;8.36;49.42
29383;BME280;16365;51.598;7.668;2023-02-14T02:34:24;102839.06;;;8.35;49.13
29383;BME280;16365;51.598;7.668;2023-02-14T02:38:21;102845.13;;;8.32;49.33
29383;BME280;16365;51.598;7.668;2023-02-14T02:46:11;102838.44;;;8.28;49.18
29383;BME280;16365;51.598;7.668;2023-02-14T02:55:10;102829.28;;;8.22;48.92
29383;BME280;16365;51.598;7.668;2023-02-14T02:57:40;102824.81;;;8.21;48.65
29383;BME280;16365;51.598;7.668;2023-02-14T03:00:09;102828.69;;;8.20;48.99
29383;BME280;16365;51.598;7.668;2023-02-14T03:02:40;102829.19;;;8.17;48.59
29383;BME280;16365;51.598;7.668;2023-02-14T03:05:28;102820.06;;;8.16;49.21
29383;BME280;16365;51.598;7.668;2023-02-14T03:07:54;102821.16;;;8.15;48.64
29383;BME280;16365;51.598;7.668;2023-02-14T03:10:26;102822.25;;;8.14;48.89
29383;BME280;16365;51.598;7.668;2023-02-14T03:13:23;102821.13;;;8.10;49.71
29383;BME280;16365;51.598;7.668;2023-02-14T03:15:56;102820.84;;;8.12;49.24
29383;BME280;16365;51.598;7.668;2023-02-14T03:23:56;102822.72;;;8.06;48.71
29383;BME280;16365;51.598;7.668;2023-02-14T03:27:14;102815.81;;;8.04;49.21
29383;BME280;16365;51.598;7.668;2023-02-14T03:29:52;102824.59;;;8.01;49.42
29383;BME280;16365;51.598;7.668;2023-02-14T03:32:36;102817.41;;;7.99;49.67
29383;BME280;16365;51.598;7.668;2023-02-14T03:38:20;102806.63;;;7.98;49.25
29383;BME280;16365;51.598;7.668;2023-02-14T03:40:54;102810.22;;;7.98;49.21
29383;BME280;16365;51.598;7.668;2023-02-14T03:43:27;102807.69;;;7.97;48.78
29383;BME280;16365;51.598;7.668;2023-02-14T03:46:02;102800.25;;;7.97;49.43
29383;BME280;16365;51.598;7.668;2023-02-14T03:48:31;102810.22;;;7.98;48.95
29383;BME280;16365;51.598;7.668;2023-02-14T03:50:59;102793.88;;;7.97;48.96
29383;BME280;16365;51.598;7.668;2023-02-14T03:53:27;102798.56;;;7.96;49.34
29383;BME280;16365;51.598;7.668;2023-02-14T03:56:11;102806.03;;;7.96;49.30
29383;BME280;16365;51.598;7.668;2023-02-14T03:58:44;102799.13;;;7.93;49.00
29383;BME280;16365;51.598;7.668;2023-02-14T04:01:16;102803.47;;;7.89;49.49
29383;BME280;16365;51.598;7.668;2023-02-14T04:03:46;102800.13;;;7.87;48.95
29383;BME280;16365;51.598;7.668;2023-02-14T04:06:16;102803.16;;;7.86;49.43
29383;BME280;16365;51.598;7.668;2023-02-14T04:08:43;102804.25;;;7.85;49.25
29383;BME280;16365;51.598;7.668;2023-02-14T04:11:10;102798.72;;;7.85;49.22
29383;BME280;16365;51.598;7.668;2023-02-14T04:13:37;102797.91;;;7.84;49.29
29383;BME280;16365;51.598;7.668;2023-02-14T04:16:04;102795.13;;;7.84;49.39
29383;BME280;16365;51.598;7.668;2023-02-14T04:18:31;102798.72;;;7.85;49.11
29383;BME280;16365;51.598;7.668;2023-02-14T04:21:16;102788.78;;;7.84;49.30
29383;BME280;16365;51.598;7.668;2023-02-14T04:23:42;102797.06;;;7.84;49.64
29383;BME280;16365;51.598;7.668;2023-02-14T04:26:09;102790.72;;;7.83;49.72
29383;BME280;16365;51.598;7.668;2023-02-14T04:28:35;102786.84;;;7.84;49.08
29383;BME280;16365;51.598;7.668;2023-02-14T04:31:04;102784.94;;;7.85;49.38
29383;BME280;16365;51.598;7.668;2023-02-14T04:33:32;102788.53;;;7.85;49.07
29383;BME280;16365;51.598;7.668;2023-02-14T04:35:59;102779.97;;;7.87;49.61
29383;BME280;16365;51.598;7.668;2023-02-14T04:38:26;102778.88;;;7.88;49.35
29383;BME280;16365;51.598;7.668;2023-02-14T04:40:52;102778.88;;;7.88;49.48
29383;BME280;16365;51.598;7.668;2023-02-14T04:43:19;102775.28;;;7.87;49.52
29383;BME280;16365;51.598;7.668;2023-02-14T04:45:45;102774.44;;;7.87;49.18
29383;BME280;16365;51.598;7.668;2023-02-14T04:48:12;102777.19;;;7.87;49.46
29383;BME280;16365;51.598;7.668;2023-02-14T04:50:38;102774.44;;;7.87;49.82
29383;BME280;16365;51.598;7.668;2023-02-14T04:53:05;102769.50;;;7.89;49.83
29383;BME280;16365;51.598;7.668;2023-02-14T04:55:31;102769.50;;;7.89;49.35
29383;BME280;16365;51.598;7.668;2023-02-14T04:57:57;102760.41;;;7.88;49.40
29383;BME280;16365;51.598;7.668;2023-02-14T05:00:24;102760.63;;;7.87;49.44
29383;BME280;16365;51.598;7.668;2023-02-14T05:02:50;102767.25;;;7.86;49.39
29383;BME280;16365;51.598;7.668;2023-02-14T05:05:17;102757.31;;;7.85;49.12
29383;BME280;16365;51.598;7.668;2023-02-14T05:07:43;102760.91;;;7.85;49.08
29383;BME280;16365;51.598;7.668;2023-02-14T05:10:13;102766.44;;;7.85;48.96
29383;BME280;16365;51.598;7.668;2023-02-14T05:12:40;102762.84;;;7.85;48.95
29383;BME280;16365;51.598;7.668;2023-02-14T05:15:06;102756.72;;;7.83;48.83
29383;BME280;16365;51.598;7.668;2023-02-14T05:17:33;102751.19;;;7.83;49.13
29383;BME280;16365;51.598;7.668;2023-02-14T05:19:59;102751.47;;;7.81;48.75
29383;BME280;16365;51.598;7.668;2023-02-14T05:22:26;102744.28;;;7.80;49.01
29383;BME280;16365;51.598;7.668;2023-02-14T05:24:52;102740.09;;;7.78;49.21
29383;BME280;16365;51.598;7.668;2023-02-14T05:27:19;102745.88;;;7.76;49.03
29383;BME280;16365;51.598;7.668;2023-02-14T05:29:45;102746.16;;;7.75;49.20
29383;BME280;16365;51.598;7.668;2023-02-14T05:32:11;102753.00;;;7.72;48.84
29383;BME280;16365;51.598;7.668;2023-02-14T05:34:38;102745.00;;;7.70;49.04
29383;BME280;16365;51.598;7.668;2023-02-14T05:37:05;102742.50;;;7.69;49.08
29383;BME280;16365;51.598;7.668;2023-02-14T05:39:31;102741.91;;;7.67;48.84
29383;BME280;16365;51.598;7.668;2023-02-14T05:41:57;102739.41;;;7.65;49.21
29383;BME280;16365;51.598;7.668;2023-02-14T05:44:24;102745.19;;;7.64;48.98
29383;BME280;16365;51.598;7.668;2023-02-14T05:46:51;102751.81;;;7.63;49.20
29383;BME280;16365;51.598;7.668;2023-02-14T05:49:17;102742.69;;;7.62;48.67
29383;BME280;16365;51.598;7.668;2023-02-14T05:51:43;102745.44;;;7.62;48.79
29383;BME280;16365;51.598;7.668;2023-02-14T05:54:10;102750.41;;;7.60;49.22
29383;BME280;16365;51.598;7.668;2023-02-14T05:56:36;102747.66;;;7.60;48.88
29383;BME280;16365;51.598;7.668;2023-02-14T05:59:03;102749.81;;;7.58;48.97
29383;BME280;16365;51.598;7.668;2023-02-14T06:01:30;102740.69;;;7.58;48.84
29383;BME280;16365;51.598;7.668;2023-02-14T06:03:56;102742.63;;;7.57;49.20
29383;BME280;16365;51.598;7.668;2023-02-14T06:06:22;102742.91;;;7.56;49.01
29383;BME280;16365;51.598;7.668;2023-02-14T06:08:49;102744.81;;;7.55;49.13
29383;BME280;16365;51.598;7.668;2023-02-14T06:11:15;102747.00;;;7.53;49.23
29383;BME280;16365;51.598;7.668;2023-02-14T06:13:42;102743.13;;;7.54;49.14
29383;BME280;16365;51.598;7.668;2023-02-14T06:16:08;102754.44;;;7.53;49.49
29383;BME280;16365;51.598;7.668;2023-02-14T06:18:35;102746.16;;;7.53;49.16
29383;BME280;16365;51.598;7.668;2023-02-14T06:21:01;102751.94;;;7.51;48.86
29383;BME280;16365;51.598;7.668;2023-02-14T06:23:28;102749.47;;;7.50;49.18
29383;BME280;16365;51.598;7.668;2023-02-14T06:25:54;102756.03;;;7.48;49.13
29383;BME280;16365;51.598;7.668;2023-02-14T06:28:21;102757.13;;;7.47;49.06
29383;BME280;16365;51.598;7.668;2023-02-14T06:30:48;102766.53;;;7.46;49.52
29383;BME280;16365;51.598;7.668;2023-02-14T06:33:14;102768.19;;;7.47;49.19
29383;BME280;16365;51.598;7.668;2023-02-14T06:35:41;102764.84;;;7.45;49.42
29383;BME280;16365;51.598;7.668;2023-02-14T06:38:07;102760.41;;;7.44;49.21
29383;BME280;16365;51.598;7.668;2023-02-14T06:40:34;102783.06;;;7.46;49.47
29383;BME280;16365;51.598;7.668;2023-02-14T06:43:00;102776.72;;;7.46;49.37
29383;BME280;16365;51.598;7.668;2023-02-14T06:45:27;102770.09;;;7.47;49.13
29383;BME280;16365;51.598;7.668;2023-02-14T06:47:53;102770.94;;;7.47;49.08
29383;BME280;16365;51.598;7.668;2023-02-14T06:50:20;102776.19;;;7.49;49.35
29383;BME280;16365;51.598;7.668;2023-02-14T06:52:46;102784.47;;;7.49;49.12
29383;BME280;16365;51.598;7.668;2023-02-14T06:55:13;102778.13;;;7.48;49.06
29383;BME280;16365;51.598;7.668;2023-02-14T06:57:40;102770.69;;;7.49;48.97
29383;BME280;16365;51.598;7.668;2023-02-14T07:00:06;102786.41;;;7.48;49.03
29383;BME280;16365;51.598;7.668;2023-02-14T07:02:33;102780.06;;;7.48;49.33
29383;BME280;16365;51.598;7.668;2023-02-14T07:05:00;102787.50;;;7.47;49.54
29383;BME280;16365;51.598;7.668;2023-02-14T07:07:26;102787.22;;;7.49;49.32
29383;BME280;16365;51.598;7.668;2023-02-14T07:09:53;102792.75;;;7.49;49.40
29383;BME280;16365;51.598;7.668;2023-02-14T07:12:19;102787.00;;;7.51;49.05
29383;BME280;16365;51.598;7.668;2023-02-14T07:14:46;102792.25;;;7.52;49.60
29383;BME280;16365;51.598;7.668;2023-02-14T07:17:12;102797.50;;;7.54;49.41
29383;BME280;16365;51.598;7.668;2023-02-14T07:19:38;102796.16;;;7.56;49.50
29383;BME280;16365;51.598;7.668;2023-02-14T07:22:05;102787.88;;;7.56;49.30
29383;BME280;16365;51.598;7.668;2023-02-14T07:24:31;102794.25;;;7.57;49.74
29383;BME280;16365;51.598;7.668;2023-02-14T07:26:58;102792.91;;;7.59;49.56
29383;BME280;16365;51.598;7.668;2023-02-14T07:29:24;102796.25;;;7.61;49.29
29383;BME280;16365;51.598;7.668;2023-02-14T07:31:50;102797.91;;;7.62;49.35
29383;BME280;16365;51.598;7.668;2023-02-14T07:34:17;102800.16;;;7.65;49.53
29383;BME280;16365;51.598;7.668;2023-02-14T07:36:44;102797.13;;;7.67;49.86
29383;BME280;16365;51.598;7.668;2023-02-14T07:39:10;102801.31;;;7.69;49.38
29383;BME280;16365;51.598;7.668;2023-02-14T07:41:37;102800.78;;;7.72;49.67
29383;BME280;16365;51.598;7.668;2023-02-14T07:44:03;102798.06;;;7.78;49.91
29383;BME280;16365;51.598;7.668;2023-02-14T07:46:30;102792.88;;;7.81;49.84
29383;BME280;16365;51.598;7.668;2023-02-14T07:48:56;102786.59;;;7.86;49.75
29383;BME280;16365;51.598;7.668;2023-02-14T07:51:22;102791.06;;;7.92;49.81
29383;BME280;16365;51.598;7.668;2023-02-14T07:53:49;102784.78;;;7.96;50.13
29383;BME280;16365;51.598;7.668;2023-02-14T07:56:19;102780.13;;;8.02;50.17
29383;BME280;16365;51.598;7.668;2023-02-14T07:58:45;102788.47;;;8.07;49.76
29383;BME280;16365;51.598;7.668;2023-02-14T08:01:11;102772.81;;;8.13;49.99
29383;BME280;16365;51.598;7.668;2023-02-14T08:03:38;102774.78;;;8.17;50.17
29383;BME280;16365;51.598;7.668;2023-02-14T08:06:04;102767.38;;;8.23;49.88
29383;BME280;16365;51.598;7.668;2023-02-14T08:08:31;102781.81;;;8.30;50.10
29383;BME280;16365;51.598;7.668;2023-02-14T08:10:58;102776.94;;;8.37;49.92
29383;BME280;16365;51.598;7.668;2023-02-14T08:13:25;102783.06;;;8.44;50.22
29383;BME280;16365;51.598;7.668;2023-02-14T08:15:52;102788.41;;;8.51;50.55
29383;BME280;16365;51.598;7.668;2023-02-14T08:18:34;102789.56;;;8.60;50.55
29383;BME280;16365;51.598;7.668;2023-02-14T08:21:02;102782.72;;;8.68;50.18
29383;BME280;16365;51.598;7.668;2023-02-14T08:23:29;102784.19;;;8.75;50.46
29383;BME280;16365;51.598;7.668;2023-02-14T08:25:55;102788.09;;;8.85;50.28
29383;BME280;16365;51.598;7.668;2023-02-14T08:28:22;102785.66;;;8.93;50.45
29383;BME280;16365;51.598;7.668;2023-02-14T08:30:49;102784.34;;;9.01;50.21
29383;BME280;16365;51.598;7.668;2023-02-14T08:33:17;102794.66;;;9.11;50.32
29383;BME280;16365;51.598;7.668;2023-02-14T08:35:43;102790.53;;;9.18;50.66
29383;BME280;16365;51.598;7.668;2023-02-14T08:38:10;102791.44;;;9.29;50.91
29383;BME280;16365;51.598;7.668;2023-02-14T08:40:36;102797.28;;;9.38;50.75
29383;BME280;16365;51.598;7.668;2023-02-14T08:43:08;102788.19;;;9.47;50.81
29383;BME280;16365;51.598;7.668;2023-02-14T08:45:35;102791.88;;;9.58;51.11
29383;BME280;16365;51.598;7.668;2023-02-14T08:48:05;102790.81;;;9.69;50.56
29383;BME280;16365;51.598;7.668;2023-02-14T08:50:31;102786.13;;;9.80;50.57
29383;BME280;16365;51.598;7.668;2023-02-14T08:52:58;102786.72;;;9.92;50.87
29383;BME280;16365;51.598;7.668;2023-02-14T08:55:25;102774.56;;;10.03;50.79
29383;BME280;16365;51.598;7.668;2023-02-14T08:57:56;102780.94;;;10.14;50.95
29383;BME280;16365;51.598;7.668;2023-02-14T09:00:23;102781.00;;;10.29;50.78
29383;BME280;16365;51.598;7.668;2023-02-14T09:02:50;102785.19;;;10.42;50.75
29383;BME280;16365;51.598;7.668;2023-02-14T09:05:18;102786.59;;;10.55;50.68
29383;BME280;16365;51.598;7.668;2023-02-14T09:07:45;102776.03;;;10.67;50.76
29383;BME280;16365;51.598;7.668;2023-02-14T09:10:12;102781.31;;;10.79;50.36
29383;BME280;16365;51.598;7.668;2023-02-14T09:12:39;102786.56;;;10.91;50.58
29383;BME280;16365;51.598;7.668;2023-02-14T09:15:08;102778.78;;;11.03;50.01
29383;BME280;16365;51.598;7.668;2023-02-14T09:17:35;102769.31;;;11.14;50.44
29383;BME280;16365;51.598;7.668;2023-02-14T09:20:04;102767.34;;;11.25;50.12
29383;BME280;16365;51.598;7.668;2023-02-14T09:22:33;102769.81;;;11.37;50.05
29383;BME280;16365;51.598;7.668;2023-02-14T09:24:59;102765.03;;;11.47;50.18
29383;BME280;16365;51.598;7.668;2023-02-14T09:27:26;102758.63;;;11.57;49.48
29383;BME280;16365;51.598;7.668;2023-02-14T09:29:52;102764.13;;;11.67;49.98
29383;BME280;16365;51.598;7.668;2023-02-14T09:32:19;102756.56;;;11.78;49.28
29383;BME280;16365;51.598;7.668;2023-02-14T09:34:46;102755.41;;;11.89;49.70
29383;BME280;16365;51.598;7.668;2023-02-14T09:37:12;102758.16;;;11.99;49.80
29383;BME280;16365;51.598;7.668;2023-02-14T09:39:57;102753.34;;;12.10;49.40
29383;BME280;16365;51.598;7.668;2023-02-14T09:45:12;102757.09;;;12.29;48.49
29383;BME280;16365;51.598;7.668;2023-02-14T09:47:48;102752.28;;;12.40;48.41
29383;BME280;16365;51.598;7.668;2023-02-14T09:50:29;102756.94;;;12.50;48.05
29383;BME280;16365;51.598;7.668;2023-02-14T09:58:47;102750.00;;;12.81;48.29
29383;BME280;16365;51.598;7.668;2023-02-14T10:01:28;102742.94;;;12.89;48.01
29383;BME280;16365;51.598;7.668;2023-02-14T10:04:00;102740.59;;;13.01;47.71
29383;BME280;16365;51.598;7.668;2023-02-14T10:11:54;102738.69;;;13.26;47.66
29383;BME280;16365;51.598;7.668;2023-02-14T10:14:23;102741.09;;;13.32;47.74
29383;BME280;16365;51.598;7.668;2023-02-14T10:17:03;102736.00;;;13.40;46.36
29383;BME280;16365;51.598;7.668;2023-02-14T10:19:37;102739.25;;;13.47;46.54
29383;BME280;16365;51.598;7.668;2023-02-14T10:22:22;102732.78;;;13.51;46.50
29383;BME280;16365;51.598;7.668;2023-02-14T10:27:29;102730.94;;;13.66;46.37
29383;BME280;16365;51.598;7.668;2023-02-14T10:29:57;102731.91;;;13.75;46.68
29383;BME280;16365;51.598;7.668;2023-02-14T10:32:45;102728.22;;;13.79;45.89
29383;BME280;16365;51.598;7.668;2023-02-14T10:35:28;102733.66;;;13.89;45.44
29383;BME280;16365;51.598;7.668;2023-02-14T10:41:04;102722.28;;;14.05;45.80
29383;BME280;16365;51.598;7.668;2023-02-14T10:46:44;102718.94;;;14.22;45.52
29383;BME280;16365;51.598;7.668;2023-02-14T10:49:44;102719.88;;;14.31;45.65
29383;BME280;16365;51.598;7.668;2023-02-14T10:52:41;102711.66;;;14.39;44.84
29383;BME280;16365;51.598;7.668;2023-02-14T10:55:22;102719.38;;;14.48;45.29
29383;BME280;16365;51.598;7.668;2023-02-14T10:58:03;102715.56;;;14.57;45.33
29383;BME280;16365;51.598;7.668;2023-02-14T11:00:38;102715.16;;;14.64;45.07
29383;BME280;16365;51.598;7.668;2023-02-14T11:03:07;102707.25;;;14.71;45.67
29383;BME280;16365;51.598;7.668;2023-02-14T11:05:40;102714.06;;;14.79;45.04
29383;BME280;16365;51.598;7.668;2023-02-14T11:08:25;102703.66;;;14.84;44.20
29383;BME280;16365;51.598;7.668;2023-02-14T11:11:20;102702.63;;;14.94;44.50
29383;BME280;16365;51.598;7.668;2023-02-14T11:13:45;102692.06;;;15.05;45.10
29383;BME280;16365;51.598;7.668;2023-02-14T11:16:33;102690.00;;;15.10;43.70
29383;BME280;16365;51.598;7.668;2023-02-14T11:19:08;102684.69;;;15.23;44.60
29383;BME280;16365;51.598;7.668;2023-02-14T11:21:39;102683.38;;;15.34;44.22
29383;BME280;16365;51.598;7.668;2023-02-14T11:24:18;102671.25;;;15.38;43.91
29383;BME280;16365;51.598;7.668;2023-02-14T11:26:47;102670.19;;;15.48;44.36
29383;BME280;16365;51.598;7.668;2023-02-14T11:29:22;102666.97;;;15.55;44.27
29383;BME280;16365;51.598;7.668;2023-02-14T11:31:50;102662.31;;;15.64;44.60
29383;BME280;16365;51.598;7.668;2023-02-14T11:34:36;102651.00;;;15.69;43.73
29383;BME280;16365;51.598;7.668;2023-02-14T11:37:30;102649.13;;;15.78;43.53
29383;BME280;16365;51.598;7.668;2023-02-14T11:40:00;102647.72;;;15.89;44.13
29383;BME280;16365;51.598;7.668;2023-02-14T11:42:47;102643.16;;;15.93;43.00
29383;BME280;16365;51.598;7.668;2023-02-14T11:45:40;102637.63;;;16.02;42.71
29383;BME280;16365;51.598;7.668;2023-02-14T11:48:15;102632.09;;;16.11;42.75
29383;BME280;16365;51.598;7.668;2023-02-14T11:50:56;102633.28;;;16.18;42.95
29383;BME280;16365;51.598;7.668;2023-02-14T11:53:26;102627.41;;;16.29;43.34
29383;BME280;16365;51.598;7.668;2023-02-14T11:55:56;102622.69;;;16.38;43.37
29383;BME280;16365;51.598;7.668;2023-02-14T12:00:55;102618.97;;;16.51;43.36
29383;BME280;16365;51.598;7.668;2023-02-14T12:03:25;102610.78;;;16.55;42.96
29383;BME280;16365;51.598;7.668;2023-02-14T12:05:53;102601.56;;;16.63;43.13
29383;BME280;16365;51.598;7.668;2023-02-14T12:08:28;102605.91;;;16.69;42.90
29383;BME280;16365;51.598;7.668;2023-02-14T12:11:03;102603.81;;;16.75;42.41
29383;BME280;16365;51.598;7.668;2023-02-14T12:13:31;102599.06;;;16.84;43.00
29383;BME280;16365;51.598;7.668;2023-02-14T12:15:58;102594.63;;;16.91;42.71
29383;BME280;16365;51.598;7.668;2023-02-14T12:18:35;102594.47;;;16.96;41.50
29383;BME280;16365;51.598;7.668;2023-02-14T12:21:22;102594.31;;;17.02;41.67
29383;BME280;16365;51.598;7.668;2023-02-14T12:26:43;102585.13;;;17.18;42.45
29383;BME280;16365;51.598;7.668;2023-02-14T12:29:27;102578.88;;;17.21;41.53
29383;BME280;16365;51.598;7.668;2023-02-14T12:32:00;102586.44;;;17.30;41.70
29383;BME280;16365;51.598;7.668;2023-02-14T12:34:27;102584.31;;;17.35;42.39
29383;BME280;16365;51.598;7.668;2023-02-14T12:40:20;102570.81;;;17.46;41.13
29383;BME280;16365;51.598;7.668;2023-02-14T12:43:22;102571.47;;;17.52;41.00
29383;BME280;16365;51.598;7.668;2023-02-14T12:46:07;102560.09;;;17.57;40.94
29383;BME280;16365;51.598;7.668;2023-02-14T12:49:04;102560.72;;;17.62;40.47
29383;BME280;16365;51.598;7.668;2023-02-14T12:51:46;102559.41;;;17.68;40.15
29383;BME280;16365;51.598;7.668;2023-02-14T12:54:33;102557.28;;;17.74;40.57
29383;BME280;16365;51.598;7.668;2023-02-14T12:57:31;102549.53;;;17.80;40.38
29383;BME280;16365;51.598;7.668;2023-02-14T13:02:55;102545.03;;;17.96;40.64
29383;BME280;16365;51.598;7.668;2023-02-14T13:05:53;102544.38;;;17.99;40.17
29383;BME280;16365;51.598;7.668;2023-02-14T13:08:49;102532.97;;;18.04;40.56
29383;BME280;16365;51.598;7.668;2023-02-14T13:16:52;102528.63;;;18.15;40.07
29383;BME280;16365;51.598;7.668;2023-02-14T13:22:22;102516.69;;;18.27;40.19
29383;BME280;16365;51.598;7.668;2023-02-14T13:25:25;102511.91;;;18.28;39.81
29383;BME280;16365;51.598;7.668;2023-02-14T13:28:05;102502.97;;;18.34;40.08
29383;BME280;16365;51.598;7.668;2023-02-14T13:30:33;102499.16;;;18.39;40.41
29383;BME280;16365;51.598;7.668;2023-02-14T13:35:45;102494.97;;;18.45;40.20
29383;BME280;16365;51.598;7.668;2023-02-14T13:38:13;102485.38;;;18.46;39.54
29383;BME280;16365;51.598;7.668;2023-02-14T13:40:41;102488.34;;;18.49;39.78
29383;BME280;16365;51.598;7.668;2023-02-14T13:43:08;102489.97;;;18.50;39.61
29383;BME280;16365;51.598;7.668;2023-02-14T13:51:04;102476.91;;;18.55;38.99
29383;BME280;16365;51.598;7.668;2023-02-14T13:56:03;102466.44;;;18.64;39.54
29383;BME280;16365;51.598;7.668;2023-02-14T13:58:29;102466.91;;;18.66;39.51
29383;BME280;16365;51.598;7.668;2023-02-14T14:00:56;102464.59;;;18.68;39.61
29383;BME280;16365;51.598;7.668;2023-02-14T14:11:00;102462.81;;;18.72;39.05
29383;BME280;16365;51.598;7.668;2023-02-14T14:21:24;102459.44;;;18.79;38.97
29383;BME280;16365;51.598;7.668;2023-02-14T14:26:42;102455.13;;;18.81;38.28
29383;BME280;16365;51.598;7.668;2023-02-14T14:29:17;102450.66;;;18.80;38.13
29383;BME280;16365;51.598;7.668;2023-02-14T14:31:46;102451.63;;;18.84;38.77
29383;BME280;16365;51.598;7.668;2023-02-14T14:34:17;102453.59;;;18.84;38.05
29383;BME280;16365;51.598;7.668;2023-02-14T14:36:44;102446.16;;;18.88;38.74
29383;BME280;16365;51.598;7.668;2023-02-14T14:39:11;102440.53;;;18.88;38.73
29383;BME280;16365;51.598;7.668;2023-02-14T14:41:38;102440.16;;;18.89;38.69
29383;BME280;16365;51.598;7.668;2023-02-14T14:44:06;102446.28;;;18.91;38.84
29383;BME280;16365;51.598;7.668;2023-02-14T14:46:32;102435.88;;;18.92;38.79
29383;BME280;16365;51.598;7.668;2023-02-14T14:48:59;102437.50;;;18.93;38.65
29383;BME280;16365;51.598;7.668;2023-02-14T14:51:29;102436.69;;;18.92;38.70
29383;BME280;16365;51.598;7.668;2023-02-14T14:54:04;102437.03;;;18.91;37.98
29383;BME280;16365;51.598;7.668;2023-02-14T14:56:42;102430.56;;;18.90;38.14
29383;BME280;16365;51.598;7.668;2023-02-14T15:01:43;102425.09;;;18.94;38.53
29383;BME280;16365;51.598;7.668;2023-02-14T15:06:40;102430.72;;;18.94;38.61
29383;BME280;16365;51.598;7.668;2023-02-14T15:09:14;102421.00;;;18.91;37.76
29383;BME280;16365;51.598;7.668;2023-02-14T15:11:42;102422.63;;;18.92;38.19